Hatsu Envoy — VSQL9 — position and weather

sailwx.info

Track history (hours):
 
Tides and Currents Weather Stations Pressure Air Temp Water Temp Dewpoint Dewpoint Depression Visibility Wind Speed Wind Dir Waves Ship Positions

Hatsu Envoy

Last reported at 2015-Aug-30 23:32 UTC. Time now 2015-Aug-31 00:33 UTC.
Position N 49°17' W 123°04'.

Type: Ship (hazmat cat D). MMSI: 235414000.

Date/timePositionNaut miles runAvg speedWind from/ knotsBaromVisibWave heightAir tempDewpointWater temp
2015-Aug-30 23:32N 49°17' W 123°04'0 0.0
2015-Aug-30 22:32N 49°17' W 123°04'0 0.0
2015-Aug-30 21:32N 49°17' W 123°04'0 0.0
2015-Aug-30 20:32N 49°17' W 123°04'0 0.0
2015-Aug-30 19:32N 49°17' W 123°04'0 0.0
2015-Aug-30 18:17N 49°17' W 123°04'0 0.1
2015-Aug-30 17:29N 49°17' W 123°04'0 0.0
2015-Aug-30 16:32N 49°17' W 123°04'0 0.0
2015-Aug-30 15:26N 49°17' W 123°04'0 0.0
2015-Aug-30 14:14N 49°17' W 123°04'0 0.3
2015-Aug-30 13:33N 49°17' W 123°05'6 5.9
2015-Aug-30 12:33N 49°19' W 123°14'1212.2
2015-Aug-30 11:33N 49°07' W 123°20'2120.9
2015-Aug-30 10:33N 48°51' W 123°00'1717.4
2015-Aug-30 09:33N 48°36' W 123°13'1514.7
2015-Aug-30 08:33N 48°22' W 123°20'1413.5
2015-Aug-30 07:33N 48°09' W 123°22'1918.5
2015-Aug-30 06:33N 48°12' W 122°55'2120.8
2015-Aug-30 05:33N 47°57' W 122°33'2120.6
2015-Aug-30 04:34N 47°37' W 122°27'1716.9
2015-Aug-30 03:34N 47°20' W 122°25'5 5.0
2015-Aug-30 02:33N 47°16' W 122°23'0 0.1
2015-Aug-29 20:19N 47°15' W 122°23'0 0.0
2015-Aug-29 16:31N 47°15' W 122°23'0 0.0
2015-Aug-29 15:31N 47°15' W 122°23'0 0.0
2015-Aug-29 14:25N 47°15' W 122°23'0 0.0
2015-Aug-29 13:31N 47°15' W 122°23'0 0.0
2015-Aug-29 12:31N 47°15' W 122°23'0 0.0
2015-Aug-29 11:25N 47°15' W 122°23'0 0.0
2015-Aug-29 10:31N 47°15' W 122°23'0 0.0
2015-Aug-29 09:25N 47°15' W 122°23'0 0.0
2015-Aug-29 06:31N 47°15' W 122°23'0 0.0
2015-Aug-28 14:26N 47°15' W 122°23'0 0.0
2015-Aug-28 09:25N 47°15' W 122°23'2 2.3
2015-Aug-28 08:33N 47°17' W 122°25'9 9.3
2015-Aug-28 07:34N 47°26' W 122°24'2020.3
2015-Aug-28 06:34N 47°46' W 122°27'2119.8
2015-Aug-28 05:30N 48°05' W 122°40'1718.5
2015-Aug-28 04:33N 48°12' W 123°04'1413.7
2015-Aug-28 03:33N 48°10' W 123°25'1615.5
2015-Aug-28 02:32N 48°14' W 123°48'1717.9
2015-Aug-28 01:33N 48°19' W 124°13'2019.7
2015-Aug-28 00:33N 48°27' W 124°40'2019.6
2015-Aug-27 23:33N 48°29' W 125°09'2120.8
2015-Aug-27 22:33N 48°28' W 125°40'2120.5
2015-Aug-27 21:33N 48°28' W 126°11'2020.0
2015-Aug-27 20:33N 48°29' W 126°41'  
Track history (hours):
 
Tides and Currents Weather Stations Pressure Air Temp Water Temp Dewpoint Dewpoint Depression Visibility Wind Speed Wind Dir Waves Ship Positions

Hatsu Envoy

Last reported at 2015-Aug-30 23:32 UTC. Time now 2015-Aug-31 00:33 UTC.
Position N 49°17' W 123°04'.

Type: Ship (hazmat cat D). MMSI: 235414000.

Date/timePositionNaut miles runAvg speedWind from/ knotsBaromVisibWave heightAir tempDewpointWater temp
2015-Aug-30 23:32N 49°17' W 123°04'0 0.0
2015-Aug-30 22:32N 49°17' W 123°04'0 0.0
2015-Aug-30 21:32N 49°17' W 123°04'0 0.0
2015-Aug-30 20:32N 49°17' W 123°04'0 0.0
2015-Aug-30 19:32N 49°17' W 123°04'0 0.0
2015-Aug-30 18:17N 49°17' W 123°04'0 0.1
2015-Aug-30 17:29N 49°17' W 123°04'0 0.0
2015-Aug-30 16:32N 49°17' W 123°04'0 0.0
2015-Aug-30 15:26N 49°17' W 123°04'0 0.0
2015-Aug-30 14:14N 49°17' W 123°04'0 0.3
2015-Aug-30 13:33N 49°17' W 123°05'6 5.9
2015-Aug-30 12:33N 49°19' W 123°14'1212.2
2015-Aug-30 11:33N 49°07' W 123°20'2120.9
2015-Aug-30 10:33N 48°51' W 123°00'1717.4
2015-Aug-30 09:33N 48°36' W 123°13'1514.7
2015-Aug-30 08:33N 48°22' W 123°20'1413.5
2015-Aug-30 07:33N 48°09' W 123°22'1918.5
2015-Aug-30 06:33N 48°12' W 122°55'2120.8
2015-Aug-30 05:33N 47°57' W 122°33'2120.6
2015-Aug-30 04:34N 47°37' W 122°27'1716.9
2015-Aug-30 03:34N 47°20' W 122°25'5 5.0
2015-Aug-30 02:33N 47°16' W 122°23'0 0.1
2015-Aug-29 20:19N 47°15' W 122°23'0 0.0
2015-Aug-29 16:31N 47°15' W 122°23'0 0.0
2015-Aug-29 15:31N 47°15' W 122°23'0 0.0
2015-Aug-29 14:25N 47°15' W 122°23'0 0.0
2015-Aug-29 13:31N 47°15' W 122°23'0 0.0
2015-Aug-29 12:31N 47°15' W 122°23'0 0.0
2015-Aug-29 11:25N 47°15' W 122°23'0 0.0
2015-Aug-29 10:31N 47°15' W 122°23'0 0.0
2015-Aug-29 09:25N 47°15' W 122°23'0 0.0
2015-Aug-29 06:31N 47°15' W 122°23'0 0.0
2015-Aug-28 14:26N 47°15' W 122°23'0 0.0
2015-Aug-28 09:25N 47°15' W 122°23'2 2.3
2015-Aug-28 08:33N 47°17' W 122°25'9 9.3
2015-Aug-28 07:34N 47°26' W 122°24'2020.3
2015-Aug-28 06:34N 47°46' W 122°27'2119.8
2015-Aug-28 05:30N 48°05' W 122°40'1718.5
2015-Aug-28 04:33N 48°12' W 123°04'1413.7
2015-Aug-28 03:33N 48°10' W 123°25'1615.5
2015-Aug-28 02:32N 48°14' W 123°48'1717.9
2015-Aug-28 01:33N 48°19' W 124°13'2019.7
2015-Aug-28 00:33N 48°27' W 124°40'2019.6
2015-Aug-27 23:33N 48°29' W 125°09'2120.8
2015-Aug-27 22:33N 48°28' W 125°40'2120.5
2015-Aug-27 21:33N 48°28' W 126°11'2020.0
2015-Aug-27 20:33N 48°29' W 126°41'  

Dump ship's entire track history